createdAt,value
2019-05-11T00:02:48.345Z,89.71
2019-05-11T00:05:52.633Z,89.50
2019-05-11T00:08:56.914Z,89.54
2019-05-11T00:12:01.248Z,89.70
2019-05-11T00:15:05.605Z,89.89
2019-05-11T00:18:09.947Z,90.07
2019-05-11T00:21:14.238Z,90.27
2019-05-11T00:24:18.535Z,90.46
2019-05-11T00:27:22.832Z,90.81
2019-05-11T00:30:27.157Z,91.10
2019-05-11T00:33:31.393Z,91.38
2019-05-11T00:36:35.668Z,91.39
2019-05-11T00:39:39.950Z,91.45
2019-05-11T00:42:44.242Z,91.59
2019-05-11T00:45:48.549Z,91.55
2019-05-11T00:48:52.839Z,91.73
2019-05-11T00:51:57.115Z,91.71
2019-05-11T00:55:01.382Z,91.75
2019-05-11T00:58:05.665Z,91.92
2019-05-11T01:01:09.951Z,92.13
2019-05-11T01:04:14.243Z,92.31
2019-05-11T01:07:18.603Z,92.45
2019-05-11T01:10:33.820Z,92.47
2019-05-11T01:13:28.892Z,92.63
2019-05-11T01:16:33.219Z,92.89
2019-05-11T01:19:37.702Z,93.08
2019-05-11T01:22:41.985Z,93.31
2019-05-11T01:25:46.273Z,93.31
2019-05-11T01:28:50.549Z,93.33
2019-05-11T01:31:54.813Z,93.38
2019-05-11T01:34:59.104Z,93.53
2019-05-11T01:38:03.394Z,93.63
2019-05-11T01:41:07.678Z,93.75
2019-05-11T01:44:11.967Z,93.78
2019-05-11T01:47:16.242Z,93.63
2019-05-11T01:50:20.558Z,93.39
2019-05-11T01:53:24.817Z,93.23
2019-05-11T01:56:29.097Z,93.10
2019-05-11T01:59:33.391Z,92.99
2019-05-11T02:02:37.686Z,92.75
2019-05-11T02:05:41.984Z,92.58
2019-05-11T02:08:46.267Z,92.43
2019-05-11T02:11:50.557Z,92.23
2019-05-11T02:14:54.810Z,92.03
2019-05-11T02:17:59.104Z,91.82
2019-05-11T02:21:03.384Z,91.92
2019-05-11T02:24:07.664Z,91.86
2019-05-11T02:27:11.964Z,92.00
2019-05-11T02:30:16.342Z,92.02
2019-05-11T02:33:20.627Z,91.99
2019-05-11T02:36:24.914Z,92.03
2019-05-11T02:39:29.182Z,92.05
2019-05-11T02:42:33.446Z,92.03
2019-05-11T02:45:42.351Z,92.20
2019-05-11T02:48:46.635Z,92.19
2019-05-11T02:51:51.014Z,92.15
2019-05-11T02:54:57.387Z,92.11
2019-05-11T02:58:01.663Z,92.26
2019-05-11T03:01:05.939Z,92.33
2019-05-11T03:04:10.234Z,92.36
2019-05-11T03:07:14.515Z,92.60
2019-05-11T03:10:18.825Z,92.84
2019-05-11T03:13:23.112Z,92.88
2019-05-11T03:16:27.397Z,92.83
2019-05-11T03:19:31.655Z,92.87
2019-05-11T03:22:35.928Z,93.06
2019-05-11T03:25:40.213Z,93.01
2019-05-11T03:28:44.486Z,92.99
2019-05-11T03:31:48.790Z,93.23
2019-05-11T03:34:53.054Z,93.32
2019-05-11T03:37:57.336Z,93.40
2019-05-11T03:41:01.640Z,93.35
2019-05-11T03:44:05.927Z,93.30
2019-05-11T03:47:10.197Z,93.24
2019-05-11T03:50:14.967Z,93.17
2019-05-11T03:53:19.253Z,93.13
2019-05-11T03:56:23.515Z,92.74
2019-05-11T03:59:27.809Z,92.43
2019-05-11T04:02:32.088Z,92.20
2019-05-11T04:05:36.405Z,92.19
2019-05-11T04:08:40.753Z,92.01
2019-05-11T04:11:45.015Z,91.95
2019-05-11T04:14:49.301Z,91.91
2019-05-11T04:17:53.591Z,92.09
2019-05-11T04:20:57.920Z,92.15
2019-05-11T04:24:02.195Z,92.08
2019-05-11T04:27:06.489Z,92.15
2019-05-11T04:30:10.861Z,92.05
2019-05-11T04:33:15.152Z,92.01
2019-05-11T04:36:19.471Z,91.91
2019-05-11T04:39:23.787Z,91.94
2019-05-11T04:42:28.103Z,92.05
2019-05-11T04:45:32.415Z,92.00
2019-05-11T04:48:36.737Z,92.10
2019-05-11T04:51:41.030Z,92.06
2019-05-11T04:54:45.295Z,92.07
2019-05-11T04:57:49.578Z,92.04
2019-05-11T05:00:53.919Z,92.07
2019-05-11T05:04:13.290Z,91.92
2019-05-11T05:07:05.362Z,91.56
2019-05-11T05:10:13.918Z,91.60
2019-05-11T05:13:16.372Z,91.98
2019-05-11T05:16:20.671Z,92.21
2019-05-11T05:19:24.991Z,92.22
2019-05-11T05:22:29.316Z,92.19
2019-05-11T05:25:33.638Z,91.77
2019-05-11T05:28:37.911Z,91.15
2019-05-11T05:31:42.279Z,90.77
2019-05-11T05:34:46.547Z,90.74
2019-05-11T05:37:50.859Z,90.35
2019-05-11T05:40:55.133Z,89.62
2019-05-11T05:43:59.398Z,88.39
2019-05-11T05:47:03.708Z,87.96
2019-05-11T05:50:08.300Z,86.20
2019-05-11T05:53:12.581Z,84.63
2019-05-11T05:56:16.868Z,84.63
2019-05-11T05:59:21.188Z,84.19
2019-05-11T06:02:25.488Z,83.92
2019-05-11T06:05:29.776Z,83.17
2019-05-11T06:08:34.087Z,81.76
2019-05-11T06:11:38.426Z,81.51
2019-05-11T06:14:42.777Z,81.12
2019-05-11T06:17:47.079Z,80.37
2019-05-11T06:20:51.394Z,78.92
2019-05-11T06:23:55.667Z,79.13
2019-05-11T06:26:59.951Z,79.10
2019-05-11T06:30:04.566Z,78.74
2019-05-11T06:33:08.960Z,78.55
2019-05-11T06:36:13.341Z,77.37
2019-05-11T06:39:17.737Z,76.28
2019-05-11T06:42:22.088Z,75.67
2019-05-11T06:45:26.398Z,74.39
2019-05-11T06:48:30.703Z,74.75
2019-05-11T06:51:34.994Z,74.23
2019-05-11T06:54:39.275Z,74.45
2019-05-11T06:57:43.591Z,74.04
2019-05-11T07:00:47.907Z,73.84
2019-05-11T07:03:52.193Z,72.64
2019-05-11T07:06:56.500Z,72.37
2019-05-11T07:10:03.835Z,70.69
2019-05-11T07:13:08.793Z,67.79
2019-05-11T07:16:13.125Z,66.72
2019-05-11T07:19:17.437Z,66.84
2019-05-11T07:22:21.746Z,66.57
2019-05-11T07:25:26.304Z,67.17
2019-05-11T07:28:30.607Z,66.56
2019-05-11T07:31:34.978Z,64.13
2019-05-11T07:34:39.290Z,65.65
2019-05-11T07:37:43.567Z,64.81
2019-05-11T07:40:47.872Z,64.50
2019-05-11T07:43:52.170Z,65.31
2019-05-11T07:46:58.586Z,64.87
2019-05-11T07:50:02.573Z,64.47
2019-05-11T07:53:08.151Z,65.69
2019-05-11T07:56:12.594Z,65.08
2019-05-11T07:59:18.392Z,63.55
2019-05-11T08:02:22.922Z,61.03
2019-05-11T08:05:28.360Z,61.38
2019-05-11T08:08:32.814Z,61.74
2019-05-11T08:11:38.916Z,61.47
2019-05-11T08:14:56.673Z,60.56
2019-05-11T08:17:49.171Z,61.73
2019-05-11T08:20:53.472Z,60.68
2019-05-11T08:23:58.745Z,61.12
2019-05-11T08:27:03.193Z,58.83
2019-05-11T08:30:08.573Z,58.33
2019-05-11T08:33:12.879Z,56.58
2019-05-11T08:36:18.448Z,57.83
2019-05-11T08:39:22.834Z,58.21
2019-05-11T08:42:28.844Z,58.35
2019-05-11T08:45:33.358Z,59.22
2019-05-11T08:48:38.831Z,58.24
2019-05-11T08:51:43.267Z,56.63
2019-05-11T08:54:48.696Z,56.82
2019-05-11T08:57:53.116Z,56.41
2019-05-11T09:00:58.219Z,57.47
2019-05-11T09:04:02.794Z,57.06
2019-05-11T09:07:07.881Z,57.17
2019-05-11T09:10:12.603Z,58.76
2019-05-11T09:13:18.557Z,57.62
2019-05-11T09:16:23.039Z,56.89
2019-05-11T09:19:28.457Z,57.07
2019-05-11T09:22:33.112Z,55.80
2019-05-11T09:25:38.472Z,55.08
2019-05-11T09:28:43.028Z,54.55
2019-05-11T09:31:48.733Z,55.92
2019-05-11T09:34:53.105Z,55.77
2019-05-11T09:37:58.762Z,54.47
2019-05-11T09:41:03.255Z,55.65
2019-05-11T09:44:08.967Z,53.87
2019-05-11T09:47:13.625Z,54.24
2019-05-11T09:50:18.221Z,55.10
2019-05-11T09:53:22.505Z,53.07
2019-05-11T09:56:28.774Z,53.07
2019-05-11T09:59:33.115Z,54.17
2019-05-11T10:02:38.520Z,53.95
2019-05-11T10:05:43.251Z,54.31
2019-05-11T10:08:48.717Z,54.31
2019-05-11T10:11:53.195Z,53.46
2019-05-11T10:14:59.119Z,53.29
2019-05-11T10:18:03.587Z,53.29
2019-05-11T10:21:08.249Z,51.49
2019-05-11T10:24:12.520Z,48.13
2019-05-11T10:27:19.207Z,48.57
2019-05-11T10:30:23.524Z,49.32
2019-05-11T10:33:28.229Z,50.34
2019-05-11T10:36:32.578Z,49.88
2019-05-11T10:39:38.320Z,50.76
2019-05-11T10:42:42.805Z,51.51
2019-05-11T10:45:48.378Z,51.25
2019-05-11T10:48:52.710Z,51.91
2019-05-11T10:51:58.662Z,50.50
2019-05-11T10:55:03.193Z,47.23
2019-05-11T10:58:08.654Z,48.26
2019-05-11T11:01:13.016Z,48.87
2019-05-11T11:04:18.429Z,49.45
2019-05-11T11:07:22.866Z,48.79
2019-05-11T11:10:28.606Z,49.63
2019-05-11T11:13:33.099Z,48.12
2019-05-11T11:16:42.049Z,48.43
2019-05-11T11:19:44.572Z,46.60
2019-05-11T11:22:48.905Z,47.91
2019-05-11T11:25:53.172Z,48.80
2019-05-11T11:28:58.139Z,49.67
2019-05-11T11:32:02.504Z,49.66
2019-05-11T11:35:08.527Z,46.37
2019-05-11T11:38:12.944Z,46.37
2019-05-11T11:41:18.504Z,46.49
2019-05-11T11:44:23.106Z,46.34
2019-05-11T11:47:28.182Z,45.34
2019-05-11T11:50:32.512Z,45.47
2019-05-11T11:53:38.367Z,45.52
2019-05-11T11:56:42.707Z,47.31
2019-05-11T11:59:48.059Z,47.92
2019-05-11T12:02:52.575Z,46.36
2019-05-11T12:05:59.305Z,47.13
2019-05-11T12:09:08.865Z,47.56
2019-05-11T12:12:13.324Z,47.81
2019-05-11T12:15:17.918Z,44.75
2019-05-11T12:18:22.231Z,44.58
2019-05-11T12:21:27.707Z,44.96
2019-05-11T12:24:32.095Z,46.65
2019-05-11T12:27:38.409Z,46.92
2019-05-11T12:30:42.389Z,46.96
2019-05-11T12:33:48.317Z,45.38
2019-05-11T12:36:52.828Z,45.94
2019-05-11T12:39:58.280Z,45.34
2019-05-11T12:43:02.699Z,45.13
2019-05-11T12:46:08.081Z,43.80
2019-05-11T12:49:12.575Z,45.58
2019-05-11T12:52:18.428Z,46.19
2019-05-11T12:55:24.013Z,45.64
2019-05-11T12:58:28.293Z,45.47
2019-05-11T13:01:32.593Z,46.12
2019-05-11T13:04:38.489Z,46.81
2019-05-11T13:07:42.801Z,46.30
2019-05-11T13:10:47.930Z,45.03
2019-05-11T13:13:52.329Z,45.02
2019-05-11T13:16:58.751Z,45.77
2019-05-11T13:20:02.592Z,44.96
2019-05-11T13:23:07.995Z,45.03
2019-05-11T13:26:13.507Z,43.59
2019-05-11T13:29:18.233Z,43.88
2019-05-11T13:32:22.518Z,43.96
2019-05-11T13:35:28.560Z,43.13
2019-05-11T13:38:32.952Z,43.26
2019-05-11T13:41:38.305Z,44.15
2019-05-11T13:44:42.680Z,44.77
2019-05-11T13:47:54.489Z,43.74
2019-05-11T13:50:52.915Z,43.95
2019-05-11T13:53:58.440Z,44.71
2019-05-11T13:57:02.841Z,44.39
2019-05-11T14:00:08.425Z,43.60
2019-05-11T14:03:12.982Z,44.13
2019-05-11T14:06:18.483Z,43.58
2019-05-11T14:09:22.969Z,43.36
2019-05-11T14:12:28.543Z,44.80
2019-05-11T14:15:33.001Z,45.71
2019-05-11T14:18:38.643Z,45.86
2019-05-11T14:21:43.070Z,45.83
2019-05-11T14:24:48.322Z,45.80
2019-05-11T14:27:52.673Z,45.98
2019-05-11T14:30:57.846Z,46.22
2019-05-11T14:34:02.269Z,45.34
2019-05-11T14:37:08.596Z,45.34
2019-05-11T14:40:12.553Z,44.86
2019-05-11T14:43:18.777Z,44.24
2019-05-11T14:46:22.853Z,44.81
2019-05-11T14:49:27.608Z,45.15
2019-05-11T14:52:31.979Z,46.01
2019-05-11T14:55:38.068Z,45.70
2019-05-11T14:58:42.237Z,45.05
2019-05-11T15:01:48.803Z,43.63
2019-05-11T15:04:52.545Z,42.91
2019-05-11T15:07:58.182Z,43.96
2019-05-11T15:11:02.677Z,43.84
2019-05-11T15:14:08.080Z,44.42
2019-05-11T15:17:12.621Z,43.92
2019-05-11T15:20:17.886Z,43.32
2019-05-11T15:23:22.161Z,42.69
2019-05-11T15:26:27.827Z,42.10
2019-05-11T15:29:32.201Z,40.88
2019-05-11T15:32:37.602Z,39.76
2019-05-11T15:35:41.937Z,39.30
2019-05-11T15:38:48.142Z,39.36
2019-05-11T15:42:06.539Z,37.58
2019-05-11T15:44:58.669Z,37.93
2019-05-11T15:48:02.951Z,37.76
2019-05-11T15:51:08.066Z,37.20
2019-05-11T15:54:12.516Z,37.02
2019-05-11T15:57:17.960Z,37.85
2019-05-11T16:00:23.531Z,36.85
2019-05-11T16:03:27.861Z,37.46
2019-05-11T16:06:32.153Z,37.02
2019-05-11T16:09:38.040Z,36.24
2019-05-11T16:12:42.386Z,36.01
2019-05-11T16:15:47.687Z,36.75
2019-05-11T16:18:52.276Z,36.93
2019-05-11T16:21:56.610Z,37.05
2019-05-11T16:25:09.667Z,37.26
2019-05-11T16:28:18.736Z,36.80
2019-05-11T16:31:22.533Z,37.77
2019-05-11T16:34:27.754Z,37.93
2019-05-11T16:37:32.339Z,38.87
2019-05-11T16:40:38.574Z,37.86
2019-05-11T16:43:42.893Z,37.96
2019-05-11T16:46:48.023Z,37.68
2019-05-11T16:49:53.302Z,38.63
2019-05-11T16:52:58.573Z,38.55
2019-05-11T16:56:03.027Z,38.72
2019-05-11T16:59:10.352Z,38.74
2019-05-11T17:02:14.806Z,38.30
2019-05-11T17:05:26.605Z,38.44
2019-05-11T17:08:27.502Z,38.68
2019-05-11T17:11:31.142Z,37.33
2019-05-11T17:14:39.010Z,37.66
2019-05-11T17:17:44.391Z,38.05
2019-05-11T17:20:48.716Z,39.88
2019-05-11T17:23:53.005Z,41.47
2019-05-11T17:27:00.337Z,42.72
2019-05-11T17:30:05.568Z,43.75
2019-05-11T17:33:09.888Z,44.52
2019-05-11T17:36:15.506Z,44.30
2019-05-11T17:39:19.827Z,45.61
2019-05-11T17:42:24.148Z,47.40
2019-05-11T17:45:28.444Z,47.63
2019-05-11T17:48:32.775Z,48.48
2019-05-11T17:51:39.465Z,49.07
2019-05-11T17:54:43.773Z,49.45
2019-05-11T17:57:49.699Z,49.75
2019-05-11T18:00:54.367Z,50.23
2019-05-11T18:03:58.649Z,49.54
2019-05-11T18:07:02.978Z,49.55
2019-05-11T18:10:08.177Z,50.21
2019-05-11T18:13:12.701Z,50.54
2019-05-11T18:16:18.717Z,50.72
2019-05-11T18:19:23.115Z,51.24
2019-05-11T18:22:28.463Z,50.68
2019-05-11T18:25:32.950Z,51.23
2019-05-11T18:28:37.973Z,51.23
2019-05-11T18:31:42.352Z,51.22
2019-05-11T18:34:48.465Z,51.25
2019-05-11T18:37:55.838Z,51.44
2019-05-11T18:41:00.280Z,52.10
2019-05-11T18:44:05.057Z,52.99
2019-05-11T18:47:09.523Z,53.13
2019-05-11T18:50:29.054Z,53.55
2019-05-11T18:53:20.284Z,54.63
2019-05-11T18:56:24.679Z,54.63
2019-05-11T18:59:29.027Z,55.62
2019-05-11T19:02:33.592Z,55.62
2019-05-11T19:05:38.551Z,56.60
2019-05-11T19:08:43.070Z,57.65
2019-05-11T19:11:48.891Z,57.99
2019-05-11T19:14:54.545Z,57.99
2019-05-11T19:17:58.946Z,58.39
2019-05-11T19:21:03.491Z,58.82
2019-05-11T19:24:09.569Z,59.33
2019-05-11T19:27:13.939Z,59.40
2019-05-11T19:30:18.646Z,60.72
2019-05-11T19:33:23.029Z,61.24
2019-05-11T19:36:27.793Z,61.17
2019-05-11T19:39:32.178Z,61.88
2019-05-11T19:42:53.641Z,62.72
2019-05-11T19:45:58.122Z,63.26
2019-05-11T19:49:02.667Z,64.03
2019-05-11T19:52:08.611Z,64.82
2019-05-11T19:55:13.372Z,64.93
2019-05-11T19:58:19.244Z,65.63
2019-05-11T20:01:23.829Z,65.99
2019-05-11T20:04:29.013Z,66.27
2019-05-11T20:07:33.351Z,66.87
2019-05-11T20:10:38.265Z,67.36
2019-05-11T20:13:42.918Z,67.55
2019-05-11T20:16:47.829Z,68.18
2019-05-11T20:19:52.233Z,68.46
2019-05-11T20:22:58.477Z,68.69
2019-05-11T20:26:02.789Z,68.88
2019-05-11T20:29:08.083Z,69.32
2019-05-11T20:32:12.729Z,70.38
2019-05-11T20:35:17.092Z,70.65
2019-05-11T20:38:21.482Z,70.96
2019-05-11T20:41:27.935Z,71.65
2019-05-11T20:44:32.022Z,71.68
2019-05-11T20:47:38.221Z,72.06
2019-05-11T20:50:42.365Z,72.51
2019-05-11T20:53:48.850Z,72.80
2019-05-11T20:56:52.709Z,73.22
2019-05-11T20:59:57.621Z,73.46
2019-05-11T21:03:01.998Z,73.79
2019-05-11T21:06:08.058Z,74.07
2019-05-11T21:09:12.733Z,74.22
2019-05-11T21:12:18.455Z,74.44
2019-05-11T21:15:31.623Z,74.86
2019-05-11T21:18:33.404Z,75.19
2019-05-11T21:21:49.593Z,75.36
2019-05-11T21:24:43.942Z,75.21
2019-05-11T21:27:48.867Z,75.69
2019-05-11T21:30:53.247Z,76.04
2019-05-11T21:33:57.531Z,76.51
2019-05-11T21:37:01.893Z,76.68
2019-05-11T21:40:08.485Z,76.71
2019-05-11T21:43:12.596Z,77.02
2019-05-11T21:46:18.096Z,77.35
2019-05-11T21:49:22.643Z,77.66
2019-05-11T21:52:28.756Z,77.87
2019-05-11T21:55:37.759Z,78.26
2019-05-11T21:58:40.974Z,78.22
2019-05-11T22:01:45.344Z,78.32
2019-05-11T22:04:49.789Z,78.47
2019-05-11T22:07:54.090Z,78.73
2019-05-11T22:10:59.996Z,78.67
2019-05-11T22:14:04.620Z,78.81
2019-05-11T22:17:08.931Z,79.09
2019-05-11T22:20:13.297Z,79.34
2019-05-11T22:23:18.344Z,79.43
2019-05-11T22:26:22.625Z,79.53
2019-05-11T22:29:28.603Z,79.73
2019-05-11T22:32:32.939Z,79.89
2019-05-11T22:35:37.719Z,79.82
2019-05-11T22:38:42.072Z,80.11
2019-05-11T22:41:48.145Z,80.56
2019-05-11T22:44:54.386Z,80.74
2019-05-11T22:47:58.682Z,80.64
2019-05-11T22:51:02.958Z,80.75
2019-05-11T22:54:11.028Z,80.88
2019-05-11T22:57:14.649Z,80.92
2019-05-11T23:00:27.904Z,80.91
2019-05-11T23:03:32.270Z,81.15
2019-05-11T23:06:40.308Z,81.35
2019-05-11T23:09:42.538Z,81.81
2019-05-11T23:12:48.263Z,82.33
2019-05-11T23:15:52.658Z,82.61
2019-05-11T23:18:56.921Z,82.82
2019-05-11T23:22:01.178Z,82.89
2019-05-11T23:25:08.116Z,83.13
2019-05-11T23:28:12.372Z,83.38
2019-05-11T23:31:16.635Z,83.44
2019-05-11T23:34:20.903Z,83.38
2019-05-11T23:37:25.190Z,83.09
2019-05-11T23:40:29.463Z,82.98
2019-05-11T23:43:33.740Z,83.10
2019-05-11T23:46:38.680Z,83.27
2019-05-11T23:49:43.066Z,83.53
2019-05-11T23:52:50.135Z,83.73
2019-05-11T23:55:53.423Z,83.67
2019-05-11T23:58:57.966Z,83.57
